sensor_id;sensor_type;location;lat;lon;timestamp;temperature;humidity
51783;DHT22;37845;53.196;5.638;2023-02-04T00:01:27;7.00;99.90
51783;DHT22;37845;53.196;5.638;2023-02-04T00:03:53;7.10;99.90
51783;DHT22;37845;53.196;5.638;2023-02-04T00:06:18;7.20;99.90
51783;DHT22;37845;53.196;5.638;2023-02-04T00:08:44;7.10;99.90
51783;DHT22;37845;53.196;5.638;2023-02-04T00:11:09;7.40;99.90
51783;DHT22;37845;53.196;5.638;2023-02-04T00:13:35;7.10;99.90
51783;DHT22;37845;53.196;5.638;2023-02-04T00:16:00;7.00;99.90
51783;DHT22;37845;53.196;5.638;2023-02-04T00:18:27;7.00;99.90
51783;DHT22;37845;53.196;5.638;2023-02-04T00:20:52;7.10;99.90
51783;DHT22;37845;53.196;5.638;2023-02-04T00:23:18;7.00;99.90
51783;DHT22;37845;53.196;5.638;2023-02-04T00:25:43;7.00;99.90
51783;DHT22;37845;53.196;5.638;2023-02-04T00:28:09;7.00;99.90
51783;DHT22;37845;53.196;5.638;2023-02-04T00:30:35;7.00;99.90
51783;DHT22;37845;53.196;5.638;2023-02-04T00:33:00;7.00;99.90
51783;DHT22;37845;53.196;5.638;2023-02-04T00:35:26;7.00;99.90
51783;DHT22;37845;53.196;5.638;2023-02-04T00:37:51;7.00;99.90
51783;DHT22;37845;53.196;5.638;2023-02-04T00:40:17;7.00;99.90
51783;DHT22;37845;53.196;5.638;2023-02-04T00:42:43;6.90;99.90
51783;DHT22;37845;53.196;5.638;2023-02-04T00:45:09;6.90;99.90
51783;DHT22;37845;53.196;5.638;2023-02-04T00:47:34;6.90;99.90
51783;DHT22;37845;53.196;5.638;2023-02-04T00:50:00;6.90;99.90
51783;DHT22;37845;53.196;5.638;2023-02-04T00:52:26;6.80;99.90
51783;DHT22;37845;53.196;5.638;2023-02-04T00:54:51;6.80;99.90
51783;DHT22;37845;53.196;5.638;2023-02-04T00:57:17;6.80;99.90
51783;DHT22;37845;53.196;5.638;2023-02-04T00:59:43;6.80;99.90
51783;DHT22;37845;53.196;5.638;2023-02-04T01:02:08;6.80;99.90
51783;DHT22;37845;53.196;5.638;2023-02-04T01:04:37;6.80;99.90
51783;DHT22;37845;53.196;5.638;2023-02-04T01:07:02;6.80;99.90
51783;DHT22;37845;53.196;5.638;2023-02-04T01:09:28;6.80;99.90
51783;DHT22;37845;53.196;5.638;2023-02-04T01:11:53;7.60;99.90
51783;DHT22;37845;53.196;5.638;2023-02-04T01:14:22;6.80;99.90
51783;DHT22;37845;53.196;5.638;2023-02-04T01:16:48;6.90;99.90
51783;DHT22;37845;53.196;5.638;2023-02-04T01:19:13;6.80;99.90
51783;DHT22;37845;53.196;5.638;2023-02-04T01:21:39;6.80;99.90
51783;DHT22;37845;53.196;5.638;2023-02-04T01:24:05;6.80;99.90
51783;DHT22;37845;53.196;5.638;2023-02-04T01:26:30;6.90;99.90
51783;DHT22;37845;53.196;5.638;2023-02-04T01:28:56;6.90;99.90
51783;DHT22;37845;53.196;5.638;2023-02-04T01:31:21;6.80;99.90
51783;DHT22;37845;53.196;5.638;2023-02-04T01:33:47;6.80;99.90
51783;DHT22;37845;53.196;5.638;2023-02-04T01:36:13;7.80;99.90
51783;DHT22;37845;53.196;5.638;2023-02-04T01:38:38;6.80;99.90
51783;DHT22;37845;53.196;5.638;2023-02-04T01:41:04;6.80;99.90
51783;DHT22;37845;53.196;5.638;2023-02-04T01:43:30;6.80;99.90
51783;DHT22;37845;53.196;5.638;2023-02-04T01:45:56;6.80;99.90
51783;DHT22;37845;53.196;5.638;2023-02-04T01:48:22;6.70;99.90
51783;DHT22;37845;53.196;5.638;2023-02-04T01:50:50;6.80;99.90
51783;DHT22;37845;53.196;5.638;2023-02-04T01:53:17;6.70;99.90
51783;DHT22;37845;53.196;5.638;2023-02-04T01:55:43;6.70;99.90
51783;DHT22;37845;53.196;5.638;2023-02-04T01:58:09;6.70;99.90
51783;DHT22;37845;53.196;5.638;2023-02-04T02:00:36;6.70;99.90
51783;DHT22;37845;53.196;5.638;2023-02-04T02:03:03;6.70;99.90
51783;DHT22;37845;53.196;5.638;2023-02-04T02:05:31;6.70;99.90
51783;DHT22;37845;53.196;5.638;2023-02-04T02:07:57;6.70;99.90
51783;DHT22;37845;53.196;5.638;2023-02-04T02:10:24;6.70;99.90
51783;DHT22;37845;53.196;5.638;2023-02-04T02:12:50;6.70;99.90
51783;DHT22;37845;53.196;5.638;2023-02-04T02:15:18;6.70;99.90
51783;DHT22;37845;53.196;5.638;2023-02-04T02:17:44;6.70;99.90
51783;DHT22;37845;53.196;5.638;2023-02-04T02:20:11;6.70;99.90
51783;DHT22;37845;53.196;5.638;2023-02-04T02:25:21;6.60;99.90
51783;DHT22;37845;53.196;5.638;2023-02-04T02:27:47;6.60;99.90
51783;DHT22;37845;53.196;5.638;2023-02-04T02:30:15;6.50;99.90
51783;DHT22;37845;53.196;5.638;2023-02-04T02:32:42;6.60;99.90
51783;DHT22;37845;53.196;5.638;2023-02-04T02:35:08;6.50;99.90
51783;DHT22;37845;53.196;5.638;2023-02-04T02:37:34;6.50;99.90
51783;DHT22;37845;53.196;5.638;2023-02-04T02:40:00;6.50;99.90
51783;DHT22;37845;53.196;5.638;2023-02-04T02:42:25;6.40;99.90
51783;DHT22;37845;53.196;5.638;2023-02-04T02:44:51;6.40;99.90
51783;DHT22;37845;53.196;5.638;2023-02-04T02:47:19;6.80;99.90
51783;DHT22;37845;53.196;5.638;2023-02-04T02:49:46;6.40;99.90
51783;DHT22;37845;53.196;5.638;2023-02-04T02:52:12;6.40;99.90
51783;DHT22;37845;53.196;5.638;2023-02-04T02:54:38;6.40;99.90
51783;DHT22;37845;53.196;5.638;2023-02-04T02:57:09;6.30;99.90
51783;DHT22;37845;53.196;5.638;2023-02-04T02:59:35;6.40;99.90
51783;DHT22;37845;53.196;5.638;2023-02-04T03:02:01;6.40;99.90
51783;DHT22;37845;53.196;5.638;2023-02-04T03:04:27;6.40;99.90
51783;DHT22;37845;53.196;5.638;2023-02-04T03:06:54;6.30;99.90
51783;DHT22;37845;53.196;5.638;2023-02-04T03:09:20;6.40;99.90
51783;DHT22;37845;53.196;5.638;2023-02-04T03:11:49;6.40;99.90
51783;DHT22;37845;53.196;5.638;2023-02-04T03:14:15;6.30;99.90
51783;DHT22;37845;53.196;5.638;2023-02-04T03:16:41;6.40;99.90
51783;DHT22;37845;53.196;5.638;2023-02-04T03:19:08;6.30;99.90
51783;DHT22;37845;53.196;5.638;2023-02-04T03:21:35;6.80;99.90
51783;DHT22;37845;53.196;5.638;2023-02-04T03:24:00;6.30;99.90
51783;DHT22;37845;53.196;5.638;2023-02-04T03:26:26;6.30;99.90
51783;DHT22;37845;53.196;5.638;2023-02-04T03:28:52;6.70;99.90
51783;DHT22;37845;53.196;5.638;2023-02-04T03:31:18;6.30;99.90
51783;DHT22;37845;53.196;5.638;2023-02-04T03:33:44;6.30;99.90
51783;DHT22;37845;53.196;5.638;2023-02-04T03:36:12;6.30;99.90
51783;DHT22;37845;53.196;5.638;2023-02-04T03:38:38;6.30;99.90
51783;DHT22;37845;53.196;5.638;2023-02-04T03:41:04;6.30;99.90
51783;DHT22;37845;53.196;5.638;2023-02-04T03:43:30;6.30;99.90
51783;DHT22;37845;53.196;5.638;2023-02-04T03:45:55;6.30;99.90
51783;DHT22;37845;53.196;5.638;2023-02-04T03:48:21;6.30;99.90
51783;DHT22;37845;53.196;5.638;2023-02-04T03:50:46;6.30;99.90
51783;DHT22;37845;53.196;5.638;2023-02-04T03:53:12;6.50;99.90
51783;DHT22;37845;53.196;5.638;2023-02-04T03:55:37;6.30;99.90
51783;DHT22;37845;53.196;5.638;2023-02-04T03:58:03;6.30;99.90
51783;DHT22;37845;53.196;5.638;2023-02-04T04:00:29;6.30;99.90
51783;DHT22;37845;53.196;5.638;2023-02-04T04:02:56;7.00;99.90
51783;DHT22;37845;53.196;5.638;2023-02-04T04:05:22;6.30;99.90
51783;DHT22;37845;53.196;5.638;2023-02-04T04:07:48;6.30;99.90
51783;DHT22;37845;53.196;5.638;2023-02-04T04:10:14;6.30;99.90
51783;DHT22;37845;53.196;5.638;2023-02-04T04:12:40;6.30;99.90
51783;DHT22;37845;53.196;5.638;2023-02-04T04:15:05;6.30;99.90
51783;DHT22;37845;53.196;5.638;2023-02-04T04:17:31;6.30;99.90
51783;DHT22;37845;53.196;5.638;2023-02-04T04:19:57;6.30;99.90
51783;DHT22;37845;53.196;5.638;2023-02-04T04:22:22;6.30;99.90
51783;DHT22;37845;53.196;5.638;2023-02-04T04:24:48;6.20;99.90
51783;DHT22;37845;53.196;5.638;2023-02-04T04:27:14;6.30;99.90
51783;DHT22;37845;53.196;5.638;2023-02-04T04:29:39;6.30;99.90
51783;DHT22;37845;53.196;5.638;2023-02-04T04:32:05;6.20;99.90
51783;DHT22;37845;53.196;5.638;2023-02-04T04:34:30;6.30;99.90
51783;DHT22;37845;53.196;5.638;2023-02-04T04:36:56;6.20;99.90
51783;DHT22;37845;53.196;5.638;2023-02-04T04:39:22;6.20;99.90
51783;DHT22;37845;53.196;5.638;2023-02-04T04:41:48;6.40;99.90
51783;DHT22;37845;53.196;5.638;2023-02-04T04:44:13;6.20;99.90
51783;DHT22;37845;53.196;5.638;2023-02-04T04:46:39;6.20;99.90
51783;DHT22;37845;53.196;5.638;2023-02-04T04:49:05;6.20;99.90
51783;DHT22;37845;53.196;5.638;2023-02-04T04:51:31;6.20;99.90
51783;DHT22;37845;53.196;5.638;2023-02-04T04:53:57;6.20;99.90
51783;DHT22;37845;53.196;5.638;2023-02-04T04:56:22;6.20;99.90
51783;DHT22;37845;53.196;5.638;2023-02-04T04:58:48;6.20;99.90
51783;DHT22;37845;53.196;5.638;2023-02-04T05:01:14;6.20;99.90
51783;DHT22;37845;53.196;5.638;2023-02-04T05:03:39;6.20;99.90
51783;DHT22;37845;53.196;5.638;2023-02-04T05:06:05;7.30;99.90
51783;DHT22;37845;53.196;5.638;2023-02-04T05:08:31;6.10;99.90
51783;DHT22;37845;53.196;5.638;2023-02-04T05:10:58;6.10;99.90
51783;DHT22;37845;53.196;5.638;2023-02-04T05:13:24;7.20;99.90
51783;DHT22;37845;53.196;5.638;2023-02-04T05:15:49;6.00;99.90
51783;DHT22;37845;53.196;5.638;2023-02-04T05:18:15;6.00;99.90
51783;DHT22;37845;53.196;5.638;2023-02-04T05:20:40;6.00;99.90
51783;DHT22;37845;53.196;5.638;2023-02-04T05:23:06;5.90;99.90
51783;DHT22;37845;53.196;5.638;2023-02-04T05:25:32;5.90;99.90
51783;DHT22;37845;53.196;5.638;2023-02-04T05:27:57;5.90;99.90
51783;DHT22;37845;53.196;5.638;2023-02-04T05:30:23;4.90;99.90
51783;DHT22;37845;53.196;5.638;2023-02-04T05:32:48;6.60;99.90
51783;DHT22;37845;53.196;5.638;2023-02-04T05:35:14;5.80;99.90
51783;DHT22;37845;53.196;5.638;2023-02-04T05:37:40;5.80;99.90
51783;DHT22;37845;53.196;5.638;2023-02-04T05:40:06;5.70;99.90
51783;DHT22;37845;53.196;5.638;2023-02-04T05:42:31;5.60;99.90
51783;DHT22;37845;53.196;5.638;2023-02-04T05:44:57;5.70;99.90
51783;DHT22;37845;53.196;5.638;2023-02-04T05:47:23;5.60;99.90
51783;DHT22;37845;53.196;5.638;2023-02-04T05:49:48;5.50;99.90
51783;DHT22;37845;53.196;5.638;2023-02-04T05:52:14;5.50;99.90
51783;DHT22;37845;53.196;5.638;2023-02-04T05:54:40;5.40;99.90
51783;DHT22;37845;53.196;5.638;2023-02-04T05:57:05;5.40;99.90
51783;DHT22;37845;53.196;5.638;2023-02-04T05:59:31;5.40;99.90
51783;DHT22;37845;53.196;5.638;2023-02-04T06:01:56;5.40;99.90
51783;DHT22;37845;53.196;5.638;2023-02-04T06:04:22;5.30;99.90
51783;DHT22;37845;53.196;5.638;2023-02-04T06:06:48;5.30;99.90
51783;DHT22;37845;53.196;5.638;2023-02-04T06:09:13;5.30;99.90
51783;DHT22;37845;53.196;5.638;2023-02-04T06:11:39;5.30;99.90
51783;DHT22;37845;53.196;5.638;2023-02-04T06:14:05;5.30;99.90
51783;DHT22;37845;53.196;5.638;2023-02-04T06:16:31;5.30;99.90
51783;DHT22;37845;53.196;5.638;2023-02-04T06:18:56;5.30;99.90
51783;DHT22;37845;53.196;5.638;2023-02-04T06:21:22;5.30;99.90
51783;DHT22;37845;53.196;5.638;2023-02-04T06:23:48;5.30;99.90
51783;DHT22;37845;53.196;5.638;2023-02-04T06:26:13;5.50;99.90
51783;DHT22;37845;53.196;5.638;2023-02-04T06:28:39;5.30;99.90
51783;DHT22;37845;53.196;5.638;2023-02-04T06:31:04;5.20;99.90
51783;DHT22;37845;53.196;5.638;2023-02-04T06:33:30;5.30;99.90
51783;DHT22;37845;53.196;5.638;2023-02-04T06:35:56;5.30;99.90
51783;DHT22;37845;53.196;5.638;2023-02-04T06:38:21;5.30;99.90
51783;DHT22;37845;53.196;5.638;2023-02-04T06:40:47;5.70;99.90
51783;DHT22;37845;53.196;5.638;2023-02-04T06:43:14;5.70;99.90
51783;DHT22;37845;53.196;5.638;2023-02-04T06:45:40;6.00;99.90
51783;DHT22;37845;53.196;5.638;2023-02-04T06:48:08;5.50;99.90
51783;DHT22;37845;53.196;5.638;2023-02-04T06:50:58;5.40;99.90
51783;DHT22;37845;53.196;5.638;2023-02-04T07:31:47;5.50;99.90
51783;DHT22;37845;53.196;5.638;2023-02-04T08:14:16;5.90;99.90
51783;DHT22;37845;53.196;5.638;2023-02-04T08:16:49;5.50;99.90
51783;DHT22;37845;53.196;5.638;2023-02-04T08:19:33;5.60;99.90
51783;DHT22;37845;53.196;5.638;2023-02-04T08:22:22;6.90;99.90
51783;DHT22;37845;53.196;5.638;2023-02-04T08:24:50;5.60;99.90
51783;DHT22;37845;53.196;5.638;2023-02-04T08:27:16;5.80;99.90
51783;DHT22;37845;53.196;5.638;2023-02-04T08:29:41;5.60;99.90
51783;DHT22;37845;53.196;5.638;2023-02-04T08:32:07;5.60;99.90
51783;DHT22;37845;53.196;5.638;2023-02-04T08:34:43;4.20;99.90
51783;DHT22;37845;53.196;5.638;2023-02-04T08:37:37;6.00;99.90
51783;DHT22;37845;53.196;5.638;2023-02-04T08:40:06;4.90;99.90
51783;DHT22;37845;53.196;5.638;2023-02-04T08:42:31;5.70;99.90
51783;DHT22;37845;53.196;5.638;2023-02-04T08:45:02;5.60;99.90
51783;DHT22;37845;53.196;5.638;2023-02-04T08:47:30;5.70;99.90
51783;DHT22;37845;53.196;5.638;2023-02-04T08:49:56;7.00;99.90
51783;DHT22;37845;53.196;5.638;2023-02-04T08:52:22;5.90;99.90
51783;DHT22;37845;53.196;5.638;2023-02-04T08:54:47;5.80;99.90
51783;DHT22;37845;53.196;5.638;2023-02-04T08:57:13;5.90;99.90
51783;DHT22;37845;53.196;5.638;2023-02-04T08:59:39;5.90;99.90
51783;DHT22;37845;53.196;5.638;2023-02-04T09:02:05;4.80;99.90
51783;DHT22;37845;53.196;5.638;2023-02-04T09:04:30;6.00;99.90
51783;DHT22;37845;53.196;5.638;2023-02-04T09:06:56;6.20;99.90
51783;DHT22;37845;53.196;5.638;2023-02-04T09:09:22;6.10;99.90
51783;DHT22;37845;53.196;5.638;2023-02-04T09:11:47;7.20;99.90
51783;DHT22;37845;53.196;5.638;2023-02-04T09:14:13;6.70;99.90
51783;DHT22;37845;53.196;5.638;2023-02-04T09:19:55;6.20;99.90
51783;DHT22;37845;53.196;5.638;2023-02-04T09:22:21;5.10;99.90
51783;DHT22;37845;53.196;5.638;2023-02-04T09:24:46;6.20;99.90
51783;DHT22;37845;53.196;5.638;2023-02-04T09:27:12;5.30;99.90
51783;DHT22;37845;53.196;5.638;2023-02-04T09:29:38;6.90;99.90
51783;DHT22;37845;53.196;5.638;2023-02-04T09:32:03;6.30;99.90
51783;DHT22;37845;53.196;5.638;2023-02-04T09:34:29;6.30;99.90
51783;DHT22;37845;53.196;5.638;2023-02-04T09:36:55;6.40;99.90
51783;DHT22;37845;53.196;5.638;2023-02-04T09:39:27;6.40;99.90
51783;DHT22;37845;53.196;5.638;2023-02-04T09:41:53;7.50;99.90
51783;DHT22;37845;53.196;5.638;2023-02-04T09:44:29;6.50;99.90
51783;DHT22;37845;53.196;5.638;2023-02-04T09:46:58;5.60;99.90
51783;DHT22;37845;53.196;5.638;2023-02-04T09:49:25;6.50;99.90
51783;DHT22;37845;53.196;5.638;2023-02-04T09:51:52;6.60;99.90
51783;DHT22;37845;53.196;5.638;2023-02-04T09:54:18;6.70;99.90
51783;DHT22;37845;53.196;5.638;2023-02-04T09:56:47;6.70;99.90
51783;DHT22;37845;53.196;5.638;2023-02-04T09:59:27;6.70;99.90
51783;DHT22;37845;53.196;5.638;2023-02-04T10:01:59;6.70;99.90
51783;DHT22;37845;53.196;5.638;2023-02-04T10:04:25;6.80;99.90
51783;DHT22;37845;53.196;5.638;2023-02-04T10:06:51;6.80;99.90
51783;DHT22;37845;53.196;5.638;2023-02-04T10:09:17;6.80;99.90
51783;DHT22;37845;53.196;5.638;2023-02-04T10:11:43;6.90;99.90
51783;DHT22;37845;53.196;5.638;2023-02-04T10:14:12;6.90;99.90
51783;DHT22;37845;53.196;5.638;2023-02-04T10:16:39;6.90;99.90
51783;DHT22;37845;53.196;5.638;2023-02-04T10:19:06;7.00;99.90
51783;DHT22;37845;53.196;5.638;2023-02-04T10:21:36;7.00;99.90
51783;DHT22;37845;53.196;5.638;2023-02-04T10:24:14;6.60;99.90
51783;DHT22;37845;53.196;5.638;2023-02-04T10:26:40;7.10;99.90
51783;DHT22;37845;53.196;5.638;2023-02-04T10:29:11;7.10;99.90
51783;DHT22;37845;53.196;5.638;2023-02-04T10:31:38;7.20;99.90
51783;DHT22;37845;53.196;5.638;2023-02-04T10:34:11;7.20;99.90
51783;DHT22;37845;53.196;5.638;2023-02-04T10:36:37;7.20;99.90
51783;DHT22;37845;53.196;5.638;2023-02-04T10:39:14;7.30;99.90
51783;DHT22;37845;53.196;5.638;2023-02-04T10:41:43;7.30;99.90
51783;DHT22;37845;53.196;5.638;2023-02-04T10:44:10;7.40;99.90
51783;DHT22;37845;53.196;5.638;2023-02-04T10:46:36;7.50;99.90
51783;DHT22;37845;53.196;5.638;2023-02-04T10:49:15;7.70;99.90
51783;DHT22;37845;53.196;5.638;2023-02-04T10:51:41;7.60;99.90
51783;DHT22;37845;53.196;5.638;2023-02-04T10:54:09;7.60;99.90
51783;DHT22;37845;53.196;5.638;2023-02-04T10:57:19;7.70;99.90
51783;DHT22;37845;53.196;5.638;2023-02-04T10:59:46;7.70;99.90
51783;DHT22;37845;53.196;5.638;2023-02-04T11:02:35;7.70;99.90
51783;DHT22;37845;53.196;5.638;2023-02-04T11:05:03;7.70;99.90
51783;DHT22;37845;53.196;5.638;2023-02-04T11:07:29;7.70;99.90
51783;DHT22;37845;53.196;5.638;2023-02-04T11:09:55;7.70;99.90
51783;DHT22;37845;53.196;5.638;2023-02-04T11:29:34;8.00;99.90
51783;DHT22;37845;53.196;5.638;2023-02-04T11:55:22;7.70;99.90
51783;DHT22;37845;53.196;5.638;2023-02-04T11:58:02;7.10;99.90
51783;DHT22;37845;53.196;5.638;2023-02-04T12:07:04;7.50;99.90
51783;DHT22;37845;53.196;5.638;2023-02-04T12:09:34;7.50;99.90
51783;DHT22;37845;53.196;5.638;2023-02-04T12:12:11;8.50;99.90
51783;DHT22;37845;53.196;5.638;2023-02-04T12:14:55;7.90;99.90
51783;DHT22;37845;53.196;5.638;2023-02-04T12:17:21;8.60;99.90
51783;DHT22;37845;53.196;5.638;2023-02-04T12:19:46;8.60;99.90
51783;DHT22;37845;53.196;5.638;2023-02-04T12:22:12;8.70;99.90
51783;DHT22;37845;53.196;5.638;2023-02-04T12:24:40;8.80;99.90
51783;DHT22;37845;53.196;5.638;2023-02-04T12:27:06;8.60;99.90
51783;DHT22;37845;53.196;5.638;2023-02-04T12:29:31;8.70;99.90
51783;DHT22;37845;53.196;5.638;2023-02-04T12:32:00;8.60;99.90
51783;DHT22;37845;53.196;5.638;2023-02-04T12:34:26;9.30;99.90
51783;DHT22;37845;53.196;5.638;2023-02-04T12:36:51;8.60;99.90
51783;DHT22;37845;53.196;5.638;2023-02-04T12:39:17;8.60;99.90
51783;DHT22;37845;53.196;5.638;2023-02-04T12:41:43;8.50;99.90
51783;DHT22;37845;53.196;5.638;2023-02-04T12:44:09;8.50;99.90
51783;DHT22;37845;53.196;5.638;2023-02-04T12:46:35;8.60;99.90
51783;DHT22;37845;53.196;5.638;2023-02-04T12:49:22;8.60;99.90
51783;DHT22;37845;53.196;5.638;2023-02-04T12:51:58;8.70;99.90
51783;DHT22;37845;53.196;5.638;2023-02-04T12:54:28;8.90;99.90
51783;DHT22;37845;53.196;5.638;2023-02-04T12:57:03;8.60;99.90
51783;DHT22;37845;53.196;5.638;2023-02-04T12:59:40;8.50;99.90
51783;DHT22;37845;53.196;5.638;2023-02-04T13:02:33;8.80;99.90
51783;DHT22;37845;53.196;5.638;2023-02-04T13:24:01;8.70;99.90
51783;DHT22;37845;53.196;5.638;2023-02-04T13:26:30;7.40;99.90
51783;DHT22;37845;53.196;5.638;2023-02-04T13:29:23;8.90;99.90
51783;DHT22;37845;53.196;5.638;2023-02-04T13:35:17;8.30;99.90
51783;DHT22;37845;53.196;5.638;2023-02-04T13:37:44;8.60;99.90
51783;DHT22;37845;53.196;5.638;2023-02-04T13:40:09;8.80;99.90
51783;DHT22;37845;53.196;5.638;2023-02-04T13:42:35;8.80;99.90
51783;DHT22;37845;53.196;5.638;2023-02-04T13:45:01;8.50;99.90
51783;DHT22;37845;53.196;5.638;2023-02-04T13:47:27;8.80;99.90
51783;DHT22;37845;53.196;5.638;2023-02-04T13:49:53;8.70;99.90
51783;DHT22;37845;53.196;5.638;2023-02-04T13:52:18;8.80;99.90
51783;DHT22;37845;53.196;5.638;2023-02-04T13:54:44;8.90;99.90
51783;DHT22;37845;53.196;5.638;2023-02-04T13:57:16;8.80;99.90
51783;DHT22;37845;53.196;5.638;2023-02-04T13:59:45;9.10;99.90
51783;DHT22;37845;53.196;5.638;2023-02-04T14:02:13;8.90;99.90
51783;DHT22;37845;53.196;5.638;2023-02-04T14:04:39;8.80;99.90
51783;DHT22;37845;53.196;5.638;2023-02-04T14:07:08;7.80;99.90
51783;DHT22;37845;53.196;5.638;2023-02-04T14:09:37;7.80;99.90
51783;DHT22;37845;53.196;5.638;2023-02-04T14:12:03;9.10;99.90
51783;DHT22;37845;53.196;5.638;2023-02-04T14:14:28;8.80;99.90
51783;DHT22;37845;53.196;5.638;2023-02-04T14:16:57;8.80;99.90
51783;DHT22;37845;53.196;5.638;2023-02-04T14:19:25;8.90;99.90
51783;DHT22;37845;53.196;5.638;2023-02-04T14:21:52;8.80;99.90
51783;DHT22;37845;53.196;5.638;2023-02-04T14:24:36;8.30;99.90
51783;DHT22;37845;53.196;5.638;2023-02-04T14:27:03;7.60;99.90
51783;DHT22;37845;53.196;5.638;2023-02-04T14:29:31;8.90;99.90
51783;DHT22;37845;53.196;5.638;2023-02-04T14:31:57;8.80;99.90
51783;DHT22;37845;53.196;5.638;2023-02-04T14:34:23;8.90;99.90
51783;DHT22;37845;53.196;5.638;2023-02-04T14:36:48;8.80;99.90
51783;DHT22;37845;53.196;5.638;2023-02-04T14:39:14;8.80;99.90
51783;DHT22;37845;53.196;5.638;2023-02-04T14:41:40;8.80;99.90
51783;DHT22;37845;53.196;5.638;2023-02-04T14:44:13;8.70;99.90
51783;DHT22;37845;53.196;5.638;2023-02-04T14:46:48;8.70;99.90
51783;DHT22;37845;53.196;5.638;2023-02-04T14:49:22;9.00;99.90
51783;DHT22;37845;53.196;5.638;2023-02-04T14:51:51;9.20;99.90
51783;DHT22;37845;53.196;5.638;2023-02-04T14:57:05;8.90;99.90
51783;DHT22;37845;53.196;5.638;2023-02-04T14:59:36;8.70;99.90
51783;DHT22;37845;53.196;5.638;2023-02-04T15:02:02;8.70;99.90
51783;DHT22;37845;53.196;5.638;2023-02-04T15:04:28;8.70;99.90
51783;DHT22;37845;53.196;5.638;2023-02-04T15:06:54;8.80;99.90
51783;DHT22;37845;53.196;5.638;2023-02-04T15:09:22;8.70;99.90
51783;DHT22;37845;53.196;5.638;2023-02-04T15:11:48;8.90;99.90
51783;DHT22;37845;53.196;5.638;2023-02-04T15:14:17;8.70;99.90
51783;DHT22;37845;53.196;5.638;2023-02-04T15:17:03;8.70;99.90
51783;DHT22;37845;53.196;5.638;2023-02-04T15:19:28;8.70;99.90
51783;DHT22;37845;53.196;5.638;2023-02-04T15:21:54;8.90;99.90
51783;DHT22;37845;53.196;5.638;2023-02-04T15:24:19;8.80;99.90
51783;DHT22;37845;53.196;5.638;2023-02-04T15:26:47;9.00;99.90
51783;DHT22;37845;53.196;5.638;2023-02-04T15:29:13;8.70;99.90
51783;DHT22;37845;53.196;5.638;2023-02-04T15:31:38;8.70;99.90
51783;DHT22;37845;53.196;5.638;2023-02-04T15:34:04;8.70;99.90
51783;DHT22;37845;53.196;5.638;2023-02-04T15:36:30;8.70;99.90
51783;DHT22;37845;53.196;5.638;2023-02-04T15:38:55;8.80;99.90
51783;DHT22;37845;53.196;5.638;2023-02-04T15:41:21;8.60;99.90
51783;DHT22;37845;53.196;5.638;2023-02-04T15:43:47;8.70;99.90
51783;DHT22;37845;53.196;5.638;2023-02-04T15:46:13;8.70;99.90
51783;DHT22;37845;53.196;5.638;2023-02-04T15:48:39;8.20;99.90
51783;DHT22;37845;53.196;5.638;2023-02-04T15:51:08;8.60;99.90
51783;DHT22;37845;53.196;5.638;2023-02-04T15:53:34;8.50;99.90
51783;DHT22;37845;53.196;5.638;2023-02-04T15:56:00;8.60;99.90
51783;DHT22;37845;53.196;5.638;2023-02-04T15:58:25;8.60;99.90
51783;DHT22;37845;53.196;5.638;2023-02-04T16:00:54;8.60;99.90
51783;DHT22;37845;53.196;5.638;2023-02-04T16:03:20;8.60;99.90
51783;DHT22;37845;53.196;5.638;2023-02-04T16:05:45;8.70;99.90
51783;DHT22;37845;53.196;5.638;2023-02-04T16:08:11;8.60;99.90
51783;DHT22;37845;53.196;5.638;2023-02-04T16:10:37;8.50;99.90
51783;DHT22;37845;53.196;5.638;2023-02-04T16:13:02;8.50;99.90
51783;DHT22;37845;53.196;5.638;2023-02-04T16:15:28;8.50;99.90
51783;DHT22;37845;53.196;5.638;2023-02-04T16:17:54;8.50;99.90
51783;DHT22;37845;53.196;5.638;2023-02-04T16:20:21;8.50;99.90
51783;DHT22;37845;53.196;5.638;2023-02-04T16:22:46;8.50;99.90
51783;DHT22;37845;53.196;5.638;2023-02-04T16:25:12;8.40;99.90
51783;DHT22;37845;53.196;5.638;2023-02-04T16:27:38;8.40;99.90
51783;DHT22;37845;53.196;5.638;2023-02-04T16:30:04;8.40;99.90
51783;DHT22;37845;53.196;5.638;2023-02-04T16:32:29;8.40;99.90
51783;DHT22;37845;53.196;5.638;2023-02-04T16:34:58;8.40;99.90
51783;DHT22;37845;53.196;5.638;2023-02-04T16:37:25;8.40;99.90
51783;DHT22;37845;53.196;5.638;2023-02-04T16:39:50;8.40;99.90
51783;DHT22;37845;53.196;5.638;2023-02-04T16:42:16;8.40;99.90
51783;DHT22;37845;53.196;5.638;2023-02-04T16:44:42;8.40;99.90
51783;DHT22;37845;53.196;5.638;2023-02-04T16:47:08;8.20;99.90
51783;DHT22;37845;53.196;5.638;2023-02-04T16:49:34;8.30;99.90
51783;DHT22;37845;53.196;5.638;2023-02-04T16:52:00;8.30;99.90
51783;DHT22;37845;53.196;5.638;2023-02-04T16:54:29;8.20;99.90
51783;DHT22;37845;53.196;5.638;2023-02-04T16:56:54;8.30;99.90
51783;DHT22;37845;53.196;5.638;2023-02-04T16:59:21;8.30;99.90
51783;DHT22;37845;53.196;5.638;2023-02-04T17:01:47;8.20;99.90
51783;DHT22;37845;53.196;5.638;2023-02-04T17:04:13;8.20;99.90
51783;DHT22;37845;53.196;5.638;2023-02-04T17:06:38;8.20;99.90
51783;DHT22;37845;53.196;5.638;2023-02-04T17:09:04;8.20;99.90
51783;DHT22;37845;53.196;5.638;2023-02-04T17:11:30;8.20;99.90
51783;DHT22;37845;53.196;5.638;2023-02-04T17:13:56;8.10;99.90
51783;DHT22;37845;53.196;5.638;2023-02-04T17:16:23;8.10;99.90
51783;DHT22;37845;53.196;5.638;2023-02-04T17:18:51;8.10;99.90
51783;DHT22;37845;53.196;5.638;2023-02-04T17:21:16;8.10;99.90
51783;DHT22;37845;53.196;5.638;2023-02-04T17:23:42;8.00;99.90
51783;DHT22;37845;53.196;5.638;2023-02-04T17:26:08;8.10;99.90
51783;DHT22;37845;53.196;5.638;2023-02-04T17:28:34;8.10;99.90
51783;DHT22;37845;53.196;5.638;2023-02-04T17:31:00;8.10;99.90
51783;DHT22;37845;53.196;5.638;2023-02-04T17:33:25;8.00;99.90
51783;DHT22;37845;53.196;5.638;2023-02-04T17:35:52;8.00;99.90
51783;DHT22;37845;53.196;5.638;2023-02-04T17:38:18;8.00;99.90
51783;DHT22;37845;53.196;5.638;2023-02-04T17:40:47;8.00;99.90
51783;DHT22;37845;53.196;5.638;2023-02-04T17:43:26;8.00;99.90
51783;DHT22;37845;53.196;5.638;2023-02-04T17:45:52;8.10;99.90
51783;DHT22;37845;53.196;5.638;2023-02-04T17:48:18;8.30;99.90
51783;DHT22;37845;53.196;5.638;2023-02-04T17:50:44;8.00;99.90
51783;DHT22;37845;53.196;5.638;2023-02-04T17:53:15;8.00;99.90
51783;DHT22;37845;53.196;5.638;2023-02-04T17:55:44;8.10;99.90
51783;DHT22;37845;53.196;5.638;2023-02-04T17:58:12;8.00;99.90
51783;DHT22;37845;53.196;5.638;2023-02-04T18:00:38;7.80;99.90
51783;DHT22;37845;53.196;5.638;2023-02-04T18:03:04;8.10;99.90
51783;DHT22;37845;53.196;5.638;2023-02-04T18:05:30;7.90;99.90
51783;DHT22;37845;53.196;5.638;2023-02-04T18:08:00;8.00;99.90
51783;DHT22;37845;53.196;5.638;2023-02-04T18:10:37;8.00;99.90
51783;DHT22;37845;53.196;5.638;2023-02-04T18:13:10;7.90;99.90
51783;DHT22;37845;53.196;5.638;2023-02-04T18:15:39;7.90;99.90
51783;DHT22;37845;53.196;5.638;2023-02-04T18:20:44;7.90;99.90
51783;DHT22;37845;53.196;5.638;2023-02-04T18:23:14;7.90;99.90
51783;DHT22;37845;53.196;5.638;2023-02-04T18:25:40;7.80;99.90